79MO weather

Faries Field
Williamsville, Missouri, United States

Public forecast

Using degrees Fahrenheit for public forecast. Weather courtesy of forecast.io.

Closest aviation weather report (METAR) to Faries Field

Closest report is Poplar Bluff Municipal Airport, 16.5 nm (30.6 km) SE. Retrieved 2020/03/28 13:53 UTC (54 minutes ago):

KPOF 281353Z AUTO 18010G18KT 10SM OVC021 21/17 A2974 RMK AO2 SLP066 T02110172

Closest aviation forecast (TAF) to Faries Field

Closest forecast is Cape Girardeau Regional Airport, 48.7 nm (90.2 km) ENE. Retrieved 2020/03/28 12:24 UTC (2 hours ago):

TAF KCGI 281121Z 2812/2912 19013G22KT P6SM SCT060 OVC180 WS020/23040KT FM281800 20013G23KT P6SM OVC050 FM282100 20013G23KT P6SM VCTS BKN040CB FM290100 21012G22KT P6SM BKN150 FM290500 24013G22KT P6SM SCT200